Main page
METAR-TAF:

METAR-TAF

Airports :

Tel Aviv / Ben Gurion, Israel

Ben Gurion Airport

latitude: 32-00N, longitude: 034-54E, elevation: 40 m

Current weather observation

The report was made 32 minutes ago, at 04:50 UTC
Wind 3 kt from variable directions
Temperature 13°C
Humidity 82%
Pressure 1017 hPa
Visibility 10 km or more
no clouds below 1500 m and no cumulonimbus

METAR: LLBG 290450Z VRB03KT CAVOK 13/10 Q1017 NOSIG

Time: 08:22 (05:22 UTC)

Forecast

The report was made 6 hours and 15 minutes ago, at 23:07 UTC
Forecast valid from 29 at 00 UTC to 29 at 24 UTC
Wind 3 kt from variable directions
Visibility 10 km or more
no clouds below 1500 m and no cumulonimbus
Becoming
from 29 at 08 UTC to 29 at 10 UTC
Wind 10 kt from the West/Northwest
Becoming
from 29 at 15 UTC to 29 at 17 UTC
Wind 5 kt from the North/Northeast
Becoming
from 29 at 21 UTC to 29 at 23 UTC
Wind 4 kt from the East

TAF: LLBG 282307Z 2900/2924 VRB03KT CAVOK BECMG 2908/2910 30010KT BECMG 2915/2917 03005KT BECMG 2921/2923 10004KT TX26/2911Z TN11/2902Z

Weather observations and forecasts of more than 4000 airports (METAR and TAF reports).

The available stations are represented by yellow and red dots on the map.

Hover mouse over dot to see the name of the station.

Then click to see weather observations and forecasts.

To change the map : click on the green buttons with a black cross to zoom in, on the green button with a dash to zoom out, or on the green arrows for adjacent maps.


METAR-TAF: